Wetterdaten: Woche 18.12.06 - 24.12.06 (KW51)
Datum Zeit Temperatur Luftfeuchte Luftdruck Niederschlag Wind Richtung Sonnenschein UV-Strahlung Solar Taupunkt Windchill Windben
18.12.2006 00:00 1.5 C 92 % 1028.8 hPa 0.0 l/m 0.2 km/h (0 Bft) N 0.00 h 0.0 UV-I 0 W/m 0.3 C 1.5 C 1.6 km/h (1 Bft)
18.12.2006 01:00 0.3 C 94 % 1028.5 hPa 0.0 l/m 1.4 km/h (1 Bft) N 0.00 h 0.0 UV-I 0 W/m -0.5 C 0.3 C 2.9 km/h (1 Bft)
18.12.2006 02:00 -0.3 C 95 % 1028.6 hPa 0.0 l/m 0.5 km/h (0 Bft) O 0.00 h 0.0 UV-I 0 W/m -0.9 C -0.3 C 1.3 km/h (1 Bft)
18.12.2006 03:00 -0.4 C 97 % 1028.6 hPa 0.0 l/m 0.7 km/h (0 Bft) O-SO 0.00 h 0.0 UV-I 0 W/m -0.8 C -0.4 C 1.7 km/h (1 Bft)
18.12.2006 04:00 -0.3 C 97 % 1028.5 hPa 0.0 l/m 0.9 km/h (0 Bft) W-NW 0.00 h 0.0 UV-I 0 W/m -0.7 C -0.4 C 2.3 km/h (1 Bft)
18.12.2006 05:00 -0.5 C 98 % 1028.5 hPa 0.0 l/m 0.4 km/h (0 Bft) W-NW 0.00 h 0.0 UV-I 0 W/m -0.7 C -0.5 C 1.4 km/h (1 Bft)
18.12.2006 06:00 -0.5 C 98 % 1028.3 hPa 0.0 l/m 0.0 km/h (0 Bft) W-NW 0.00 h 0.0 UV-I 0 W/m -0.8 C -0.5 C 0.3 km/h (0 Bft)
18.12.2006 07:00 -0.5 C 98 % 1028.5 hPa 0.0 l/m 0.6 km/h (0 Bft) W-NW 0.00 h 0.0 UV-I 0 W/m -0.8 C -0.5 C 1.5 km/h (1 Bft)
18.12.2006 08:00 -0.6 C 99 % 1028.4 hPa 0.0 l/m 1.3 km/h (1 Bft) NO 0.13 h 0.0 UV-I 23 W/m -0.8 C -0.6 C 2.3 km/h (1 Bft)
18.12.2006 09:00 0.2 C 99 % 1028.4 hPa 0.0 l/m 0.4 km/h (0 Bft) SO 0.25 h 0.0 UV-I 67 W/m 0.0 C 0.2 C 1.4 km/h (1 Bft)
18.12.2006 10:00 1.1 C 95 % 1028.4 hPa 0.0 l/m 1.8 km/h (1 Bft) W-NW 0.68 h 0.6 UV-I 145 W/m 0.3 C 1.1 C 3.7 km/h (1 Bft)
18.12.2006 11:00 3.0 C 86 % 1027.9 hPa 0.0 l/m 1.6 km/h (1 Bft) NO 0.62 h 0.8 UV-I 168 W/m 0.9 C 2.9 C 3.9 km/h (1 Bft)
18.12.2006 12:00 3.2 C 83 % 1027.4 hPa 0.0 l/m 1.8 km/h (1 Bft) NO 0.05 h 0.6 UV-I 102 W/m 0.6 C 3.1 C 4.5 km/h (1 Bft)
18.12.2006 13:00 3.8 C 78 % 1026.8 hPa 0.0 l/m 2.2 km/h (1 Bft) N 0.42 h 0.8 UV-I 169 W/m 0.4 C 3.6 C 5.1 km/h (1 Bft)
18.12.2006 14:00 4.3 C 72 % 1026.5 hPa 0.0 l/m 2.0 km/h (1 Bft) O 0.12 h 0.6 UV-I 87 W/m -0.3 C 4.1 C 5.3 km/h (1 Bft)
18.12.2006 15:00 3.9 C 72 % 1026.7 hPa 0.0 l/m 1.7 km/h (1 Bft) N-NO 0.00 h 0.0 UV-I 36 W/m -0.6 C 3.9 C 4.6 km/h (1 Bft)
18.12.2006 16:00 3.3 C 69 % 1027.1 hPa 0.0 l/m 4.8 km/h (1 Bft) NO 0.00 h 0.0 UV-I 9 W/m -1.8 C 2.4 C 11.1 km/h (2 Bft)
18.12.2006 17:00 2.6 C 71 % 1027.2 hPa 0.0 l/m 3.0 km/h (1 Bft) N-NO 0.00 h 0.0 UV-I 0 W/m -2.2 C 2.2 C 7.4 km/h (2 Bft)
18.12.2006 18:00 2.3 C 73 % 1027.3 hPa 0.0 l/m 1.4 km/h (1 Bft) N-NO 0.00 h 0.0 UV-I 0 W/m -2.1 C 2.2 C 4.1 km/h (1 Bft)
18.12.2006 19:00 2.1 C 74 % 1027.3 hPa 0.0 l/m 2.6 km/h (1 Bft) NO 0.00 h 0.0 UV-I 0 W/m -2.1 C 1.9 C 6.6 km/h (2 Bft)
18.12.2006 20:00 1.8 C 75 % 1027.2 hPa 0.0 l/m 1.9 km/h (1 Bft) O 0.00 h 0.0 UV-I 0 W/m -2.1 C 1.6 C 4.7 km/h (1 Bft)
18.12.2006 21:00 1.7 C 76 % 1027.3 hPa 0.0 l/m 2.9 km/h (1 Bft) NO 0.00 h 0.0 UV-I 0 W/m -2.1 C 1.3 C 6.6 km/h (2 Bft)
18.12.2006 22:00 1.3 C 76 % 1027.3 hPa 0.0 l/m 2.0 km/h (1 Bft) N-NO 0.00 h 0.0 UV-I 0 W/m -2.4 C 1.1 C 4.9 km/h (1 Bft)
18.12.2006 23:00 1.2 C 74 % 1027.4 hPa 0.0 l/m 3.2 km/h (1 Bft) N-NO 0.00 h 0.0 UV-I 0 W/m -2.9 C 0.7 C 7.8 km/h (2 Bft)
19.12.2006 00:00 1.3 C 73 % 1027.1 hPa 0.0 l/m 2.5 km/h (1 Bft) O-SO 0.00 h 0.0 UV-I 0 W/m -3.0 C 1.0 C 5.4 km/h (1 Bft)
19.12.2006 01:00 1.3 C 70 % 1027.0 hPa 0.0 l/m 0.9 km/h (0 Bft) O 0.00 h 0.0 UV-I 0 W/m -3.5 C 1.3 C 2.6 km/h (1 Bft)
19.12.2006 02:00 1.6 C 67 % 1027.0 hPa 0.0 l/m 1.5 km/h (1 Bft) O 0.00 h 0.0 UV-I 0 W/m -3.9 C 1.4 C 4.0 km/h (1 Bft)
19.12.2006 03:00 2.0 C 65 % 1027.3 hPa 0.0 l/m 2.0 km/h (1 Bft) O 0.00 h 0.0 UV-I 0 W/m -3.9 C 1.9 C 4.9 km/h (1 Bft)
19.12.2006 04:00 2.2 C 63 % 1027.2 hPa 0.0 l/m 2.9 km/h (1 Bft) O-NO 0.00 h 0.0 UV-I 0 W/m -4.0 C 1.7 C 6.7 km/h (2 Bft)
19.12.2006 05:00 2.3 C 62 % 1027.5 hPa 0.0 l/m 4.4 km/h (1 Bft) N-NO 0.00 h 0.0 UV-I 0 W/m -4.1 C 1.6 C 9.9 km/h (2 Bft)
19.12.2006 06:00 2.6 C 61 % 1028.1 hPa 0.0 l/m 4.9 km/h (1 Bft) NO 0.00 h 0.0 UV-I 0 W/m -4.3 C 1.6 C 10.2 km/h (2 Bft)
19.12.2006 07:00 2.3 C 60 % 1028.4 hPa 0.0 l/m 4.3 km/h (1 Bft) O-NO 0.00 h 0.0 UV-I 0 W/m -4.7 C 1.4 C 9.4 km/h (2 Bft)
19.12.2006 08:00 1.8 C 63 % 1029.1 hPa 0.0 l/m 3.5 km/h (1 Bft) NO 0.02 h 0.0 UV-I 12 W/m -4.5 C 1.2 C 8.7 km/h (2 Bft)
19.12.2006 09:00 2.1 C 63 % 1029.4 hPa 0.0 l/m 6.3 km/h (2 Bft) N-NO 0.00 h 0.5 UV-I 33 W/m -4.2 C 0.6 C 13.3 km/h (3 Bft)
19.12.2006 10:00 2.8 C 61 % 1029.8 hPa 0.0 l/m 6.8 km/h (2 Bft) O 0.15 h 0.7 UV-I 67 W/m -4.0 C 1.2 C 14.0 km/h (3 Bft)
19.12.2006 11:00 3.4 C 59 % 1029.7 hPa 0.0 l/m 7.3 km/h (2 Bft) N-NO 0.98 h 0.9 UV-I 234 W/m -3.7 C 1.7 C 15.3 km/h (3 Bft)
19.12.2006 12:00 3.6 C 59 % 1029.8 hPa 0.0 l/m 7.9 km/h (2 Bft) O-SO 0.75 h 0.9 UV-I 225 W/m -3.7 C 1.7 C 15.6 km/h (3 Bft)
19.12.2006 13:00 3.6 C 57 % 1029.8 hPa 0.0 l/m 9.7 km/h (2 Bft) O 0.42 h 0.8 UV-I 158 W/m -4.3 C 1.2 C 20.6 km/h (4 Bft)
19.12.2006 14:00 3.1 C 57 % 1030.2 hPa 0.0 l/m 7.0 km/h (2 Bft) N-NO 0.00 h 0.5 UV-I 70 W/m -4.5 C 1.4 C 15.0 km/h (3 Bft)
19.12.2006 15:00 2.7 C 57 % 1030.8 hPa 0.0 l/m 6.3 km/h (2 Bft) N-NO 0.00 h 0.0 UV-I 31 W/m -5.0 C 1.2 C 14.0 km/h (3 Bft)
19.12.2006 16:00 2.2 C 57 % 1031.1 hPa 0.0 l/m 6.4 km/h (2 Bft) N-NO 0.00 h 0.0 UV-I 11 W/m -5.5 C 0.6 C 13.2 km/h (3 Bft)
19.12.2006 17:00 1.8 C 57 % 1031.4 hPa 0.0 l/m 5.5 km/h (1 Bft) N-NO 0.00 h 0.0 UV-I 0 W/m -5.8 C 0.5 C 11.2 km/h (2 Bft)
19.12.2006 18:00 1.6 C 58 % 1031.7 hPa 0.0 l/m 4.0 km/h (1 Bft) N-NO 0.00 h 0.0 UV-I 0 W/m -5.8 C 0.8 C 9.0 km/h (2 Bft)
19.12.2006 19:00 1.3 C 58 % 1032.2 hPa 0.0 l/m 4.6 km/h (1 Bft) O-NO 0.00 h 0.0 UV-I 0 W/m -6.1 C 0.4 C 9.6 km/h (2 Bft)
19.12.2006 20:00 1.2 C 58 % 1032.5 hPa 0.0 l/m 5.3 km/h (1 Bft) N-NO 0.00 h 0.0 UV-I 0 W/m -6.2 C -0.1 C 11.5 km/h (2 Bft)
19.12.2006 21:00 1.0 C 58 % 1032.7 hPa 0.0 l/m 4.1 km/h (1 Bft) N 0.00 h 0.0 UV-I 0 W/m -6.2 C 0.2 C 8.0 km/h (2 Bft)
19.12.2006 22:00 0.9 C 57 % 1032.4 hPa 0.0 l/m 4.9 km/h (1 Bft) NO 0.00 h 0.0 UV-I 0 W/m -6.6 C -0.3 C 10.8 km/h (2 Bft)
19.12.2006 23:00 0.8 C 58 % 1032.5 hPa 0.0 l/m 5.5 km/h (1 Bft) NO 0.00 h 0.0 UV-I 0 W/m -6.6 C -0.6 C 12.0 km/h (2 Bft)
20.12.2006 00:00 0.6 C 58 % 1032.7 hPa 0.0 l/m 5.4 km/h (1 Bft) NO 0.00 h 0.0 UV-I 0 W/m -6.6 C -0.8 C 12.2 km/h (2 Bft)
20.12.2006 01:00 0.2 C 61 % 1032.9 hPa 0.0 l/m 4.5 km/h (1 Bft) O 0.00 h 0.0 UV-I 0 W/m -6.5 C -0.8 C 10.1 km/h (2 Bft)
20.12.2006 02:00 -0.2 C 64 % 1032.8 hPa 0.0 l/m 3.3 km/h (1 Bft) N 0.00 h 0.0 UV-I 0 W/m -6.2 C -0.8 C 7.6 km/h (2 Bft)
20.12.2006 03:00 -0.2 C 63 % 1033.0 hPa 0.0 l/m 2.6 km/h (1 Bft) NO 0.00 h 0.0 UV-I 0 W/m -6.3 C -0.6 C 6.2 km/h (2 Bft)
20.12.2006 04:00 -0.2 C 63 % 1032.7 hPa 0.0 l/m 2.7 km/h (1 Bft) O-NO 0.00 h 0.0 UV-I 0 W/m -6.3 C -0.6 C 6.4 km/h (2 Bft)
20.12.2006 05:00 -0.3 C 64 % 1033.1 hPa 0.0 l/m 1.4 km/h (1 Bft) O-NO 0.00 h 0.0 UV-I 0 W/m -6.2 C -0.4 C 3.8 km/h (1 Bft)
20.12.2006 06:00 -0.7 C 66 % 1033.7 hPa 0.0 l/m 1.4 km/h (1 Bft) NO 0.00 h 0.0 UV-I 0 W/m -6.3 C -0.8 C 3.8 km/h (1 Bft)
20.12.2006 07:00 -0.7 C 66 % 1034.2 hPa 0.0 l/m 2.5 km/h (1 Bft) O 0.00 h 0.0 UV-I 0 W/m -6.2 C -1.0 C 5.6 km/h (1 Bft)
20.12.2006 08:00 -0.4 C 66 % 1034.7 hPa 0.0 l/m 1.8 km/h (1 Bft) NO 0.05 h 0.0 UV-I 13 W/m -5.9 C -0.5 C 4.8 km/h (1 Bft)
20.12.2006 09:00 0.1 C 65 % 1035.3 hPa 0.0 l/m 3.4 km/h (1 Bft) O-SO 0.00 h 0.5 UV-I 33 W/m -5.7 C -0.5 C 7.0 km/h (2 Bft)
20.12.2006 10:00 1.2 C 61 % 1035.4 hPa 0.0 l/m 4.3 km/h (1 Bft) O 0.13 h 0.8 UV-I 67 W/m -5.4 C 0.4 C 9.0 km/h (2 Bft)
20.12.2006 11:00 2.2 C 58 % 1035.5 hPa 0.0 l/m 6.2 km/h (2 Bft) O-SO 1.00 h 1.0 UV-I 241 W/m -5.2 C 0.8 C 12.6 km/h (3 Bft)
20.12.2006 12:00 2.9 C 56 % 1035.0 hPa 0.0 l/m 7.3 km/h (2 Bft) O-SO 0.93 h 1.1 UV-I 244 W/m -5.0 C 1.0 C 15.0 km/h (3 Bft)
20.12.2006 13:00 3.4 C 55 % 1034.7 hPa 0.0 l/m 5.7 km/h (1 Bft) O 1.00 h 0.9 UV-I 224 W/m -4.8 C 2.2 C 11.0 km/h (2 Bft)
20.12.2006 14:00 3.6 C 55 % 1034.7 hPa 0.0 l/m 5.1 km/h (1 Bft) O-SO 0.60 h 0.7 UV-I 135 W/m -4.6 C 2.6 C 10.9 km/h (2 Bft)
20.12.2006 15:00 3.3 C 57 % 1034.9 hPa 0.0 l/m 4.9 km/h (1 Bft) O 0.08 h 0.5 UV-I 59 W/m -4.4 C 2.3 C 9.9 km/h (2 Bft)
20.12.2006 16:00 2.6 C 60 % 1035.4 hPa 0.0 l/m 1.6 km/h (1 Bft) O-NO 0.07 h 0.0 UV-I 16 W/m -4.2 C 2.5 C 4.2 km/h (1 Bft)
20.12.2006 17:00 1.9 C 64 % 1036.0 hPa 0.0 l/m 1.7 km/h (1 Bft) NO 0.00 h 0.0 UV-I 0 W/m -4.1 C 1.8 C 4.0 km/h (1 Bft)
20.12.2006 18:00 1.3 C 68 % 1036.5 hPa 0.0 l/m 2.3 km/h (1 Bft) NO 0.00 h 0.0 UV-I 0 W/m -3.9 C 1.3 C 5.2 km/h (1 Bft)
20.12.2006 19:00 0.8 C 71 % 1036.5 hPa 0.0 l/m 1.3 km/h (1 Bft) N-NO 0.00 h 0.0 UV-I 0 W/m -3.8 C 0.7 C 2.8 km/h (1 Bft)
20.12.2006 20:00 0.4 C 73 % 1036.6 hPa 0.0 l/m 0.9 km/h (0 Bft) NO 0.00 h 0.0 UV-I 0 W/m -3.8 C 0.4 C 2.9 km/h (1 Bft)
20.12.2006 21:00 0.1 C 76 % 1036.6 hPa 0.0 l/m 0.6 km/h (0 Bft) O-SO 0.00 h 0.0 UV-I 0 W/m -3.7 C 0.1 C 2.3 km/h (1 Bft)
20.12.2006 22:00 -0.5 C 78 % 1036.7 hPa 0.0 l/m 2.2 km/h (1 Bft) O-SO 0.00 h 0.0 UV-I 0 W/m -3.9 C -0.6 C 3.9 km/h (1 Bft)
20.12.2006 23:00 -0.6 C 77 % 1036.6 hPa 0.0 l/m 2.1 km/h (1 Bft) O 0.00 h 0.0 UV-I 0 W/m -4.0 C -0.8 C 4.0 km/h (1 Bft)
21.12.2006 00:00 -0.5 C 76 % 1036.4 hPa 0.0 l/m 1.7 km/h (1 Bft) O 0.00 h 0.0 UV-I 0 W/m -4.2 C -0.5 C 3.7 km/h (1 Bft)
21.12.2006 01:00 -0.9 C 78 % 1036.3 hPa 0.0 l/m 1.1 km/h (0 Bft) O 0.00 h 0.0 UV-I 0 W/m -4.2 C -0.9 C 2.2 km/h (1 Bft)
21.12.2006 02:00 -0.9 C 79 % 1036.4 hPa 0.0 l/m 1.3 km/h (1 Bft) SO 0.00 h 0.0 UV-I 0 W/m -4.0 C -0.9 C 3.1 km/h (1 Bft)
21.12.2006 03:00 -0.5 C 78 % 1036.4 hPa 0.0 l/m 2.2 km/h (1 Bft) O-SO 0.00 h 0.0 UV-I 0 W/m -3.8 C -0.5 C 4.2 km/h (1 Bft)
21.12.2006 04:00 -0.6 C 80 % 1036.4 hPa 0.0 l/m 2.8 km/h (1 Bft) O-SO 0.00 h 0.0 UV-I 0 W/m -3.7 C -0.8 C 4.9 km/h (1 Bft)
21.12.2006 05:00 -0.8 C 81 % 1036.2 hPa 0.0 l/m 2.0 km/h (1 Bft) O 0.00 h 0.0 UV-I 0 W/m -3.7 C -1.0 C 4.2 km/h (1 Bft)
21.12.2006 06:00 -1.8 C 85 % 1036.8 hPa 0.0 l/m 2.6 km/h (1 Bft) O-SO 0.00 h 0.0 UV-I 0 W/m -3.9 C -2.0 C 4.5 km/h (1 Bft)
21.12.2006 07:00 -1.2 C 84 % 1037.2 hPa 0.0 l/m 0.9 km/h (0 Bft) SO 0.00 h 0.0 UV-I 0 W/m -3.6 C -1.3 C 2.5 km/h (1 Bft)
21.12.2006 08:00 -0.9 C 83 % 1037.4 hPa 0.0 l/m 1.4 km/h (1 Bft) O-SO 0.05 h 0.0 UV-I 15 W/m -3.4 C -0.9 C 3.0 km/h (1 Bft)
21.12.2006 09:00 0.1 C 81 % 1037.6 hPa 0.0 l/m 0.2 km/h (0 Bft) O-SO 0.00 h 0.5 UV-I 50 W/m -2.7 C 0.1 C 1.3 km/h (1 Bft)
21.12.2006 10:00 1.6 C 79 % 1037.7 hPa 0.0 l/m 2.5 km/h (1 Bft) NO 0.00 h 0.6 UV-I 89 W/m -1.6 C 1.3 C 6.6 km/h (2 Bft)
21.12.2006 11:00 2.5 C 78 % 1037.1 hPa 0.0 l/m 5.0 km/h (1 Bft) NO 0.00 h 0.6 UV-I 73 W/m -0.8 C 1.4 C 10.7 km/h (2 Bft)
21.12.2006 12:00 2.7 C 77 % 1036.9 hPa 0.0 l/m 5.4 km/h (1 Bft) O 0.00 h 0.8 UV-I 66 W/m -0.9 C 1.5 C 11.9 km/h (2 Bft)
21.12.2006 13:00 3.6 C 74 % 1036.3 hPa 0.0 l/m 4.8 km/h (1 Bft) NO 0.15 h 0.9 UV-I 107 W/m -0.6 C 2.7 C 10.3 km/h (2 Bft)
21.12.2006 14:00 4.0 C 72 % 1036.0 hPa 0.0 l/m 4.3 km/h (1 Bft) O 0.03 h 0.6 UV-I 59 W/m -0.6 C 3.3 C 9.5 km/h (2 Bft)
21.12.2006 15:00 4.3 C 69 % 1036.2 hPa 0.0 l/m 4.9 km/h (1 Bft) N-NO 0.12 h 0.5 UV-I 57 W/m -0.8 C 3.5 C 10.3 km/h (2 Bft)
21.12.2006 16:00 3.7 C 69 % 1036.5 hPa 0.0 l/m 5.1 km/h (1 Bft) N-NO 0.03 h 0.0 UV-I 13 W/m -1.4 C 2.8 C 11.0 km/h (2 Bft)
21.12.2006 17:00 3.0 C 72 % 1036.8 hPa 0.0 l/m 4.0 km/h (1 Bft) NO 0.00 h 0.0 UV-I 0 W/m -1.6 C 2.3 C 9.0 km/h (2 Bft)
21.12.2006 18:00 2.6 C 75 % 1037.0 hPa 0.0 l/m 4.3 km/h (1 Bft) O-NO 0.00 h 0.0 UV-I 0 W/m -1.3 C 1.8 C 9.3 km/h (2 Bft)
21.12.2006 19:00 2.4 C 78 % 1037.2 hPa 0.0 l/m 6.7 km/h (2 Bft) NO 0.00 h 0.0 UV-I 0 W/m -1.1 C 0.7 C 13.1 km/h (3 Bft)
21.12.2006 20:00 2.3 C 79 % 1037.5 hPa 0.0 l/m 4.3 km/h (1 Bft) N-NO 0.00 h 0.0 UV-I 0 W/m -1.0 C 1.5 C 9.9 km/h (2 Bft)
21.12.2006 21:00 2.1 C 80 % 1037.5 hPa 0.0 l/m 4.3 km/h (1 Bft) N-NO 0.00 h 0.0 UV-I 0 W/m -1.0 C 1.3 C 9.3 km/h (2 Bft)
21.12.2006 22:00 1.9 C 80 % 1037.4 hPa 0.0 l/m 3.0 km/h (1 Bft) N-NO 0.00 h 0.0 UV-I 0 W/m -1.2 C 1.4 C 7.0 km/h (2 Bft)
21.12.2006 23:00 1.9 C 79 % 1037.1 hPa 0.0 l/m 3.4 km/h (1 Bft) NO 0.00 h 0.0 UV-I 0 W/m -1.4 C 1.3 C 7.9 km/h (2 Bft)
22.12.2006 00:00 1.8 C 79 % 1036.8 hPa 0.0 l/m 2.9 km/h (1 Bft) NO 0.00 h 0.0 UV-I 0 W/m -1.5 C 1.4 C 6.9 km/h (2 Bft)
22.12.2006 01:00 1.8 C 78 % 1036.4 hPa 0.0 l/m 3.2 km/h (1 Bft) NO 0.00 h 0.0 UV-I 0 W/m -1.7 C 1.3 C 7.7 km/h (2 Bft)
22.12.2006 02:00 1.8 C 76 % 1036.3 hPa 0.0 l/m 2.4 km/h (1 Bft) NO 0.00 h 0.0 UV-I 0 W/m -2.0 C 1.4 C 5.5 km/h (1 Bft)
22.12.2006 03:00 1.5 C 77 % 1036.5 hPa 0.0 l/m 2.3 km/h (1 Bft) O 0.00 h 0.0 UV-I 0 W/m -2.1 C 1.2 C 5.4 km/h (1 Bft)
22.12.2006 04:00 1.3 C 77 % 1036.5 hPa 0.0 l/m 2.7 km/h (1 Bft) NO 0.00 h 0.0 UV-I 0 W/m -2.2 C 0.9 C 5.9 km/h (2 Bft)
22.12.2006 05:00 1.0 C 78 % 1036.6 hPa 0.0 l/m 1.4 km/h (1 Bft) O-NO 0.00 h 0.0 UV-I 0 W/m -2.3 C 0.9 C 3.9 km/h (1 Bft)
22.12.2006 06:00 0.8 C 80 % 1036.8 hPa 0.0 l/m 1.5 km/h (1 Bft) O-SO 0.00 h 0.0 UV-I 0 W/m -2.3 C 0.7 C 4.1 km/h (1 Bft)
22.12.2006 07:00 1.2 C 78 % 1037.1 hPa 0.0 l/m 2.9 km/h (1 Bft) NO 0.00 h 0.0 UV-I 0 W/m -2.1 C 0.9 C 6.5 km/h (2 Bft)
22.12.2006 08:00 1.5 C 77 % 1037.3 hPa 0.0 l/m 3.7 km/h (1 Bft) NO 0.00 h 0.0 UV-I 13 W/m -2.1 C 0.8 C 8.2 km/h (2 Bft)
22.12.2006 09:00 1.6 C 76 % 1038.0 hPa 0.0 l/m 2.9 km/h (1 Bft) O-SO 0.00 h 0.0 UV-I 30 W/m -2.1 C 1.3 C 7.2 km/h (2 Bft)
22.12.2006 10:00 1.7 C 75 % 1038.8 hPa 0.0 l/m 3.5 km/h (1 Bft) O-SO 0.00 h 0.0 UV-I 43 W/m -2.3 C 1.2 C 8.4 km/h (2 Bft)
22.12.2006 11:00 1.9 C 73 % 1038.9 hPa 0.0 l/m 4.6 km/h (1 Bft) O 0.00 h 0.5 UV-I 61 W/m -2.3 C 0.9 C 9.6 km/h (2 Bft)
22.12.2006 12:00 2.1 C 73 % 1038.5 hPa 0.0 l/m 4.0 km/h (1 Bft) O-SO 0.00 h 0.6 UV-I 75 W/m -2.3 C 1.3 C 7.9 km/h (2 Bft)
22.12.2006 13:00 2.3 C 72 % 1038.1 hPa 0.0 l/m 4.0 km/h (1 Bft) O-SO 0.00 h 0.6 UV-I 74 W/m -2.2 C 1.6 C 7.6 km/h (2 Bft)
22.12.2006 14:00 2.4 C 72 % 1037.9 hPa 0.0 l/m 10.1 km/h (2 Bft) O-SO 0.00 h 0.5 UV-I 59 W/m -2.2 C -0.3 C 16.6 km/h (3 Bft)
22.12.2006 15:00 2.6 C 72 % 1037.8 hPa 0.0 l/m 1.7 km/h (1 Bft) O-SO 0.00 h 0.0 UV-I 38 W/m -1.9 C 2.4 C 3.8 km/h (1 Bft)
22.12.2006 16:00 1.9 C 77 % 1037.9 hPa 0.0 l/m 0.2 km/h (0 Bft) O-SO 0.00 h 0.0 UV-I 12 W/m -1.7 C 1.9 C 1.0 km/h (0 Bft)
22.12.2006 17:00 1.3 C 79 % 1038.2 hPa 0.0 l/m 0.4 km/h (0 Bft) O-SO 0.00 h 0.0 UV-I 0 W/m -2.0 C 1.3 C 1.2 km/h (1 Bft)
22.12.2006 18:00 0.5 C 81 % 1038.6 hPa 0.0 l/m 0.9 km/h (0 Bft) O 0.00 h 0.0 UV-I 0 W/m -2.3 C 0.5 C 2.6 km/h (1 Bft)
22.12.2006 19:00 0.2 C 82 % 1038.6 hPa 0.0 l/m 0.6 km/h (0 Bft) O-SO 0.00 h 0.0 UV-I 0 W/m -2.5 C 0.2 C 2.1 km/h (1 Bft)
22.12.2006 20:00 0.2 C 81 % 1038.6 hPa 0.0 l/m 1.0 km/h (0 Bft) O-NO 0.00 h 0.0 UV-I 0 W/m -2.6 C 0.1 C 2.7 km/h (1 Bft)
22.12.2006 21:00 0.7 C 79 % 1038.4 hPa 0.0 l/m 1.3 km/h (1 Bft) O 0.00 h 0.0 UV-I 0 W/m -2.5 C 0.7 C 3.5 km/h (1 Bft)
22.12.2006 22:00 0.7 C 79 % 1038.5 hPa 0.0 l/m 2.2 km/h (1 Bft) O-SO 0.00 h 0.0 UV-I 0 W/m -2.5 C 0.5 C 4.7 km/h (1 Bft)
22.12.2006 23:00 0.5 C 81 % 1038.6 hPa 0.0 l/m 2.6 km/h (1 Bft) SO 0.00 h 0.0 UV-I 0 W/m -2.4 C 0.3 C 4.9 km/h (1 Bft)
23.12.2006 00:00 0.6 C 81 % 1038.6 hPa 0.0 l/m 2.6 km/h (1 Bft) O-SO 0.00 h 0.0 UV-I 0 W/m -2.2 C 0.3 C 5.3 km/h (1 Bft)
23.12.2006 01:00 1.0 C 81 % 1038.5 hPa 0.0 l/m 4.3 km/h (1 Bft) O-SO 0.00 h 0.0 UV-I 0 W/m -2.0 C 0.0 C 7.4 km/h (2 Bft)
23.12.2006 02:00 1.3 C 79 % 1038.4 hPa 0.0 l/m 6.9 km/h (2 Bft) O-SO 0.00 h 0.0 UV-I 0 W/m -1.8 C -0.6 C 10.8 km/h (2 Bft)
23.12.2006 03:00 1.2 C 80 % 1038.3 hPa 0.0 l/m 4.6 km/h (1 Bft) O-SO 0.00 h 0.0 UV-I 0 W/m -1.9 C -0.1 C 7.3 km/h (2 Bft)
23.12.2006 04:00 0.5 C 83 % 1038.0 hPa 0.0 l/m 0.2 km/h (0 Bft) O-NO 0.00 h 0.0 UV-I 0 W/m -2.0 C 0.5 C 0.7 km/h (0 Bft)
23.12.2006 05:00 -0.1 C 85 % 1038.1 hPa 0.0 l/m 0.0 km/h (0 Bft) N 0.00 h 0.0 UV-I 0 W/m -2.3 C -0.1 C 0.2 km/h (0 Bft)
23.12.2006 06:00 -0.0 C 86 % 1038.4 hPa 0.0 l/m 0.5 km/h (0 Bft) NO 0.00 h 0.0 UV-I 0 W/m -2.0 C -0.0 C 1.9 km/h (1 Bft)
23.12.2006 07:00 0.2 C 82 % 1038.8 hPa 0.0 l/m 2.6 km/h (1 Bft) NO 0.00 h 0.0 UV-I 0 W/m -2.6 C -0.2 C 6.1 km/h (2 Bft)
23.12.2006 08:00 0.2 C 82 % 1039.0 hPa 0.0 l/m 1.8 km/h (1 Bft) O-SO 0.00 h 0.0 UV-I 8 W/m -2.5 C -0.1 C 4.7 km/h (1 Bft)
23.12.2006 09:00 0.5 C 80 % 1039.3 hPa 0.0 l/m 4.4 km/h (1 Bft) O-SO 0.00 h 0.0 UV-I 25 W/m -2.6 C -0.5 C 8.6 km/h (2 Bft)
23.12.2006 10:00 0.7 C 78 % 1039.7 hPa 0.0 l/m 2.5 km/h (1 Bft) O-SO 0.00 h 0.5 UV-I 55 W/m -2.6 C 0.3 C 5.8 km/h (1 Bft)
23.12.2006 11:00 0.8 C 77 % 1039.3 hPa 0.0 l/m 4.4 km/h (1 Bft) O 0.00 h 0.6 UV-I 83 W/m -2.7 C -0.2 C 8.5 km/h (2 Bft)
23.12.2006 12:00 1.1 C 77 % 1038.7 hPa 0.0 l/m 7.3 km/h (2 Bft) O-SO 0.00 h 0.7 UV-I 108 W/m -2.5 C -1.0 C 11.5 km/h (2 Bft)
23.12.2006 13:00 1.5 C 76 % 1037.9 hPa 0.0 l/m 6.4 km/h (2 Bft) O-SO 0.88 h 0.9 UV-I 193 W/m -2.3 C -0.3 C 9.7 km/h (2 Bft)
23.12.2006 14:00 2.0 C 75 % 1037.4 hPa 0.0 l/m 5.6 km/h (1 Bft) O-SO 0.63 h 0.7 UV-I 136 W/m -2.0 C 0.6 C 8.9 km/h (2 Bft)
23.12.2006 15:00 1.8 C 76 % 1037.4 hPa 0.0 l/m 3.1 km/h (1 Bft) O-SO 0.08 h 0.5 UV-I 61 W/m -2.0 C 1.4 C 5.7 km/h (1 Bft)
23.12.2006 16:00 1.0 C 79 % 1037.5 hPa 0.0 l/m 2.5 km/h (1 Bft) O-SO 0.05 h 0.0 UV-I 15 W/m -2.2 C 0.6 C 5.5 km/h (1 Bft)
23.12.2006 17:00 0.3 C 82 % 1037.7 hPa 0.0 l/m 2.0 km/h (1 Bft) O-SO 0.00 h 0.0 UV-I 0 W/m -2.4 C 0.1 C 3.8 km/h (1 Bft)
23.12.2006 18:00 -0.2 C 84 % 1037.7 hPa 0.0 l/m 0.5 km/h (0 Bft) O 0.00 h 0.0 UV-I 0 W/m -2.6 C -0.2 C 1.8 km/h (1 Bft)
23.12.2006 19:00 0.6 C 83 % 1037.6 hPa 0.0 l/m 2.7 km/h (1 Bft) O 0.00 h 0.0 UV-I 0 W/m -2.0 C 0.2 C 6.4 km/h (2 Bft)
23.12.2006 20:00 1.0 C 81 % 1037.4 hPa 0.0 l/m 2.9 km/h (1 Bft) O-SO 0.00 h 0.0 UV-I 0 W/m -1.8 C 0.6 C 6.8 km/h (2 Bft)
23.12.2006 21:00 1.0 C 82 % 1037.3 hPa 0.0 l/m 3.5 km/h (1 Bft) O-SO 0.00 h 0.0 UV-I 0 W/m -1.8 C 0.3 C 7.7 km/h (2 Bft)
23.12.2006 22:00 0.9 C 83 % 1037.0 hPa 0.0 l/m 3.5 km/h (1 Bft) O-SO 0.00 h 0.0 UV-I 0 W/m -1.7 C 0.2 C 7.3 km/h (2 Bft)
23.12.2006 23:00 1.0 C 83 % 1037.0 hPa 0.0 l/m 3.0 km/h (1 Bft) O-SO 0.00 h 0.0 UV-I 0 W/m -1.6 C 0.5 C 6.5 km/h (2 Bft)
24.12.2006 00:00 1.0 C 83 % 1036.8 hPa 0.0 l/m 2.8 km/h (1 Bft) O-SO 0.00 h 0.0 UV-I 0 W/m -1.6 C 0.6 C 6.0 km/h (2 Bft)
24.12.2006 01:00 0.9 C 83 % 1036.4 hPa 0.0 l/m 2.6 km/h (1 Bft) O 0.00 h 0.0 UV-I 0 W/m -1.5 C 0.7 C 5.9 km/h (2 Bft)
24.12.2006 02:00 0.8 C 84 % 1036.2 hPa 0.0 l/m 1.5 km/h (1 Bft) O 0.00 h 0.0 UV-I 0 W/m -1.6 C 0.7 C 4.1 km/h (1 Bft)
24.12.2006 03:00 0.6 C 84 % 1036.1 hPa 0.0 l/m 1.4 km/h (1 Bft) O-SO 0.00 h 0.0 UV-I 0 W/m -1.7 C 0.5 C 3.7 km/h (1 Bft)
24.12.2006 04:00 0.6 C 85 % 1036.0 hPa 0.0 l/m 1.1 km/h (1 Bft) N-NO 0.00 h 0.0 UV-I 0 W/m -1.6 C 0.5 C 3.8 km/h (1 Bft)
24.12.2006 05:00 0.4 C 85 % 1036.0 hPa 0.0 l/m 4.3 km/h (1 Bft) O-SO 0.00 h 0.0 UV-I 0 W/m -1.8 C -0.6 C 7.0 km/h (2 Bft)
24.12.2006 06:00 0.3 C 85 % 1036.2 hPa 0.0 l/m 1.4 km/h (1 Bft) O 0.00 h 0.0 UV-I 0 W/m -1.9 C 0.2 C 3.6 km/h (1 Bft)
24.12.2006 07:00 0.3 C 85 % 1036.5 hPa 0.0 l/m 1.8 km/h (1 Bft) O-SO 0.00 h 0.0 UV-I 0 W/m -2.0 C 0.0 C 3.7 km/h (1 Bft)
24.12.2006 08:00 0.2 C 86 % 1036.7 hPa 0.0 l/m 1.5 km/h (1 Bft) O-SO 0.00 h 0.0 UV-I 6 W/m -1.9 C -0.0 C 3.3 km/h (1 Bft)
24.12.2006 09:00 0.2 C 86 % 1037.0 hPa 0.0 l/m 3.0 km/h (1 Bft) SO 0.00 h 0.0 UV-I 16 W/m -1.9 C -0.2 C 5.5 km/h (1 Bft)
24.12.2006 10:00 0.2 C 85 % 1037.3 hPa 0.0 l/m 4.3 km/h (1 Bft) O-SO 0.00 h 0.0 UV-I 33 W/m -2.0 C -0.7 C 7.3 km/h (2 Bft)
24.12.2006 11:00 0.3 C 84 % 1037.1 hPa 0.0 l/m 4.8 km/h (1 Bft) O-SO 0.00 h 0.0 UV-I 48 W/m -2.0 C -0.8 C 7.9 km/h (2 Bft)
24.12.2006 12:00 0.5 C 84 % 1036.5 hPa 0.0 l/m 2.9 km/h (1 Bft) O-SO 0.00 h 0.5 UV-I 59 W/m -2.0 C -0.1 C 5.9 km/h (2 Bft)
24.12.2006 13:00 0.4 C 84 % 1035.9 hPa 0.0 l/m 4.4 km/h (1 Bft) O-SO 0.00 h 0.5 UV-I 57 W/m -2.0 C -0.5 C 7.4 km/h (2 Bft)
24.12.2006 14:00 0.4 C 84 % 1035.8 hPa 0.0 l/m 5.3 km/h (1 Bft) O-SO 0.00 h 0.0 UV-I 37 W/m -2.0 C -1.0 C 8.5 km/h (2 Bft)
24.12.2006 15:00 0.3 C 84 % 1035.8 hPa 0.0 l/m 2.2 km/h (1 Bft) O-SO 0.00 h 0.0 UV-I 16 W/m -2.1 C -0.0 C 4.8 km/h (1 Bft)
24.12.2006 16:00 0.2 C 84 % 1036.0 hPa 0.0 l/m 4.0 km/h (1 Bft) O-SO 0.00 h 0.0 UV-I 6 W/m -2.2 C -0.8 C 7.4 km/h (2 Bft)
24.12.2006 17:00 0.0 C 84 % 1036.2 hPa 0.0 l/m 5.2 km/h (1 Bft) O-SO 0.00 h 0.0 UV-I 0 W/m -2.3 C -1.4 C 8.7 km/h (2 Bft)
24.12.2006 18:00 0.0 C 85 % 1036.0 hPa 0.0 l/m 5.6 km/h (1 Bft) O-SO 0.00 h 0.0 UV-I 0 W/m -2.2 C -1.5 C 9.0 km/h (2 Bft)
24.12.2006 19:00 0.1 C 85 % 1035.7 hPa 0.0 l/m 3.7 km/h (1 Bft) O-SO 0.00 h 0.0 UV-I 0 W/m -2.1 C -0.6 C 6.7 km/h (2 Bft)
24.12.2006 20:00 0.3 C 84 % 1035.6 hPa 0.0 l/m 4.3 km/h (1 Bft) O-SO 0.00 h 0.0 UV-I 0 W/m -2.1 C -0.6 C 7.3 km/h (2 Bft)
24.12.2006 21:00 0.2 C 85 % 1035.8 hPa 0.0 l/m 3.9 km/h (1 Bft) O-SO 0.00 h 0.0 UV-I 0 W/m -2.0 C -0.6 C 6.4 km/h (2 Bft)
24.12.2006 22:00 0.2 C 85 % 1035.8 hPa 0.0 l/m 3.2 km/h (1 Bft) O-SO 0.00 h 0.0 UV-I 0 W/m -2.0 C -0.3 C 5.8 km/h (2 Bft)
24.12.2006 23:00 0.2 C 85 % 1035.7 hPa 0.0 l/m 1.7 km/h (1 Bft) O-SO 0.00 h 0.0 UV-I 0 W/m -2.0 C 0.1 C 4.0 km/h (1 Bft)
Min-Datum _ 21.12.06 20.12.06 18.12.06 - 18.12.06 - - - - 20.12.06 20.12.06 18.12.06
_ Min-Zeit 06:52 13:13 14:00 - 00:00 - - - - 04:53 08:04 00:15
Minimum _ -2.0 C 54 % 1026.4 hPa - 0.0 km/h (0 Bft) - - - - -7.0 C -4.4 C 0.0 km/h (0 Bft)
Max-Datum _ 18.12.06 18.12.06 23.12.06 18.12.06 22.12.06 - 18.12.06 20.12.06 18.12.06 18.12.06 18.12.06 19.12.06
_ Max-Zeit 13:47 08:28 10:15 00:00 14:31 - 08:25 11:46 13:46 11:24 13:48 13:00
Maximum _ 4.5 C 99 % 1039.7 hPa 0.0 l/m 21.2 km/h
O-SO (4 Bft)
- 0.02 h 1.1 UV-I 357 W/m 1.4 C 4.5 C 48.7 km/h
O-SO (6 Bft)
Durchschnitt _ 1.2 C 76 % 1034.5 hPa #0.0 l/m 3.1 km/h (1 Bft) O-SO #10:29 h 0.7 UV-I 73 W/m -2.8 C 0.6 C 6.6 km/h (2 Bft)
© Kaiko 2006